Contrecoeur, Canada
Current Conditions -  °F | °C
As of 6:30 PM on Monday 20 Oct 2014 (Local Time) from CYHU Reporting Station
Overcast Overcast  
Wind Chill: 40°   Ceiling: 6000
Heat Index: 43°   Visibility: 9mi
Dew Point: 37°   Wind: 5mph
Humidity: 81%   Direction: 50°NE
Pressure: 29.94"   Gusts: NA
Location:  45.85°N, 73.23°W
Report Text: CYHU 202230Z AUTO 05004KT 9SM SCT033 SCT040 OVC060 06/03 A2994 RMK SLP139
Loading
Personal Weather Stations






























Interactive Weather Map
Tropical Storm Tracking
New forecast layout! Learn more

10-Day Weather Forecast

Advertisements
Track Severe Weather on mobile